MacDowall, Canada
Current Conditions -  °F | °C
As of 8:00 PM on Monday 20 Oct 2014 (Local Time) from CYPA Reporting Station
Clear Clear  
Wind Chill: 50°   Ceiling: Unl
Heat Index: 50°   Visibility: 15mi
Dew Point: 41°   Wind: 2mph
Humidity: 71%   Direction: NA
Pressure: 29.63"   Gusts: NA
Location:  53.02°N, 106.01°W
Report Text: CYPA 210200Z VRB02KT 15SM SKC 10/05 A2963 RMK SLP048
Loading
Personal Weather Stations






























Interactive Weather Map
Tropical Storm Tracking
New forecast layout! Learn more

10-Day Weather Forecast

Advertisements
Track Severe Weather on mobile